Latest Weather Observations for Laverton

IDV60801

Issued at 4:35 pm EDT Thursday 23 October 2014 (issued every 30 minutes, with the page automatically refreshed every 10 minutes)

About weather observations | Map of weather stations | Latest weather observations for VIC | Other Formats
Station Details ID: 087031 Name: LAVERTON RAAF Lat: -37.86 Lon: 144.76 Height: 20.1 m
Data from the previous 72 hours. | See also: Recent months at Laverton
Date/Time
EDT
Temp
°C
App
Temp
°C
Dew
Point
Rel
Hum
%
Delta-T
°C
Wind Press
QNH
hPa
Press
MSL
hPa
Rain
since 9 am
mm
Dir
 
Spd
km/h
Gust
km/h
Spd
kts
Gust
kts
23/04:30pm 18.1 15.2 13.0 72 2.9 SSW 20 28 11 15 1016.5 1016.5 0.0
23/04:00pm 18.1 15.4 13.0 72 2.9 S 19 26 10 14 1016.8 1016.8 0.0
23/03:30pm 18.2 16.7 13.1 72 2.9 S 13 22 7 12 1017.1 1017.1 0.0
23/03:00pm 17.6 16.0 12.7 73 2.7 S 13 19 7 10 1017.5 1017.5 0.0
23/02:30pm 17.4 15.7 12.5 73 2.7 SSE 13 20 7 11 1018.0 1018.0 0.0
23/02:00pm 16.7 14.1 12.0 74 2.6 SSE 17 24 9 13 1018.5 1018.5 0.0
23/01:32pm 16.8 14.7 12.3 75 2.5 SSE 15 20 8 11 1018.6 1018.6 0.0
23/01:30pm 16.8 14.7 12.5 76 2.4 SSE 15 20 8 11 1018.6 1018.6 0.0
23/01:00pm 16.2 14.2 12.6 79 2.0 S 15 20 8 11 1019.1 1019.1 0.0
23/12:30pm 15.2 12.6 12.1 82 1.7 SSE 17 20 9 11 1019.6 1019.6 0.0
23/12:00pm 15.2 12.7 12.3 83 1.6 SSE 17 22 9 12 1019.8 1019.8 0.0
23/11:30am 15.3 13.6 12.4 83 1.6 SSE 13 17 7 9 1020.0 1020.0 0.0
23/11:00am 15.2 13.1 12.5 84 1.5 SSE 15 19 8 10 1020.3 1020.3 0.0
23/10:33am 14.8 12.5 13.0 89 1.0 S 17 20 9 11 1020.5 1020.5 0.0
23/10:30am 14.7 12.4 13.1 90 0.9 S 17 20 9 11 1020.5 1020.5 0.0
23/10:00am 14.2 13.1 13.1 93 0.6 SSE 11 17 6 9 1020.6 1020.6 0.0
23/09:30am 14.0 12.8 12.7 92 0.7 S 11 13 6 7 1020.8 1020.8 0.0
23/09:00am 14.0 12.0 12.6 91 0.8 S 15 19 8 10 1020.6 1020.6 0.0
23/08:35am 14.4 12.7 12.4 88 1.1 SSE 13 17 7 9 1020.7 1020.7 0.0
23/08:30am 14.6 12.6 12.6 88 1.1 SSE 15 19 8 10 1020.7 1020.7 0.0
23/08:00am 14.8 13.4 12.3 85 1.4 SSE 11 17 6 9 1020.3 1020.3 0.0
23/07:30am 14.6 12.9 12.6 88 1.1 SSE 13 17 7 9 1020.1 1020.1 0.0
23/07:17am 14.4 13.2 12.8 90 0.9 S 11 17 6 9 1020.2 1020.2 0.0
23/07:00am 14.3 12.4 12.9 91 0.8 S 15 20 8 11 1020.0 1020.0 0.0
23/06:31am 14.5 12.3 12.2 86 1.2 S 15 20 8 11 1019.8 1019.8 0.0
23/06:30am 14.5 12.3 12.2 86 1.2 S 15 20 8 11 1019.8 1019.8 0.0
23/06:00am 14.9 13.2 12.4 85 1.4 S 13 19 7 10 1019.4 1019.4 0.0
23/05:30am 15.0 13.3 12.5 85 1.4 SSW 13 20 7 11 1019.0 1019.0 0.0
23/05:00am 14.9 13.3 12.8 87 1.2 SSW 13 19 7 10 1018.7 1018.7 0.0
23/04:33am 14.9 12.6 12.9 88 1.1 SSW 17 20 9 11 1018.6 1018.6 0.0
23/04:30am 14.9 12.6 12.9 88 1.1 SSW 17 20 9 11 1018.7 1018.7 0.0
23/04:17am 14.8 12.4 12.8 88 1.1 SW 17 20 9 11 1018.7 1018.7 0.0
23/04:00am 15.0 13.4 12.9 87 1.2 SW 13 19 7 10 1018.9 1018.9 0.0
23/03:30am 15.0 13.1 12.9 87 1.2 SSW 15 20 8 11 1018.8 1018.8 0.0
23/03:00am 14.8 12.4 12.7 87 1.1 SSW 17 22 9 12 1019.2 1019.2 0.0
23/02:30am 14.9 12.5 12.8 87 1.2 SSW 17 22 9 12 1019.4 1019.4 0.0
23/02:00am 14.9 13.0 12.9 88 1.1 SW 15 22 8 12 1019.4 1019.4 0.0
23/01:30am 14.9 12.1 13.1 89 1.0 SW 20 28 11 15 1019.5 1019.5 0.0
23/01:11am 15.0 12.4 13.2 89 1.0 SW 19 24 10 13 1019.3 1019.3 0.0
23/01:00am 14.9 12.6 13.1 89 1.0 SW 17 22 9 12 1019.2 1019.2 0.0
23/12:30am 15.2 12.9 12.9 86 1.3 SW 17 24 9 13 1018.9 1018.9 0.0
23/12:00am 15.6 13.7 13.1 85 1.4 S 15 22 8 12 1019.0 1019.0 0.0
 
Date/Time
EDT
Temp
°C
App
Temp
°C
Dew
Point
Rel
Hum
%
Delta-T
°C
Wind Press
QNH
hPa
Press
MSL
hPa
Rain
since 9 am
mm
Dir
 
Spd
km/h
Gust
km/h
Spd
kts
Gust
kts
22/11:30pm 16.0 14.6 13.5 85 1.4 SSW 13 20 7 11 1018.7 1018.7 0.0
22/11:00pm 15.8 13.2 13.3 85 1.4 S 19 26 10 14 1018.4 1018.4 0.0
22/10:30pm 15.8 11.5 13.3 85 1.4 SSW 28 37 15 20 1018.7 1018.7 0.0
22/10:00pm 16.8 13.3 13.3 80 2.0 SSW 24 39 13 21 1018.5 1018.5 0.0
22/09:30pm 19.2 15.3 12.0 63 4.0 SW 24 33 13 18 1018.0 1018.0 0.0
22/09:00pm 20.8 18.1 12.8 60 4.5 WSW 19 26 10 14 1017.6 1017.6 0.0
22/08:30pm 21.8 18.8 12.4 55 5.3 SW 20 30 11 16 1016.4 1016.4 0.0
22/08:00pm 22.9 19.6 12.8 53 5.8 SW 22 37 12 20 1015.6 1015.6 0.0
22/07:30pm 27.7 25.8 11.7 37 9.2 NW 13 20 7 11 1014.8 1014.8 0.0
22/07:00pm 29.1 26.8 11.6 33 10.1 N 15 20 8 11 1014.1 1014.0 0.0
22/06:30pm 30.5 27.2 11.0 30 11.2 N 19 26 10 14 1013.8 1013.7 0.0
22/06:00pm 30.7 28.1 12.1 32 10.9 NNE 17 28 9 15 1013.8 1013.7 0.0
22/05:30pm 30.6 27.4 12.0 32 10.9 NNE 20 30 11 16 1013.9 1013.8 0.0
22/05:00pm 30.1 26.7 12.5 34 10.4 NE 22 33 12 18 1014.0 1013.9 0.0
22/04:30pm 30.6 26.5 11.5 30 11.1 NE 24 32 13 17 1014.2 1014.1 0.0
22/04:00pm 32.5 28.1 11.6 28 12.3 NNE 26 37 14 20 1014.4 1014.3 0.0
22/03:30pm 31.5 27.7 11.3 29 11.7 NNE 22 33 12 18 1014.5 1014.4 0.0
22/03:00pm 31.8 28.2 10.5 27 12.2 NNE 20 30 11 16 1014.8 1014.8 0.0
22/02:30pm 32.1 28.2 10.7 27 12.4 NNE 22 33 12 18 1015.0 1015.0 0.0
22/02:00pm 32.3 28.0 10.9 27 12.4 NE 24 33 13 18 1015.5 1015.5 0.0
22/01:30pm 31.3 27.8 12.2 31 11.3 NE 22 33 12 18 1016.0 1016.0 0.0
22/01:00pm 29.9 26.3 11.9 33 10.5 NNE 22 33 12 18 1016.5 1016.5 0.0
22/12:30pm 28.5 24.1 11.6 35 9.7 NNE 26 35 14 19 1017.0 1017.0 0.0
22/12:00pm 27.9 23.4 11.5 36 9.4 NNE 26 35 14 19 1017.4 1017.4 0.0
22/11:30am 26.7 21.8 11.2 38 8.8 NNE 28 35 15 19 1017.9 1017.9 0.0
22/11:00am 25.9 21.3 10.9 39 8.4 NNE 26 37 14 20 1018.6 1018.6 0.0
22/10:30am 24.7 20.1 10.9 42 7.7 NNE 26 39 14 21 1018.9 1018.9 0.0
22/10:00am 23.5 19.5 10.6 44 7.1 N 22 32 12 17 1019.2 1019.2 0.0
22/09:43am 23.2 18.2 10.9 46 6.8 N 28 46 15 25 1018.9 1018.9 0.0
22/09:30am 22.8 17.3 10.6 46 6.7 N 30 46 16 25 1018.7 1018.7 0.0
22/09:00am 21.9 16.8 10.7 49 6.1 N 28 46 15 25 1018.9 1018.9 0.0
22/08:34am 20.7 15.5 10.2 51 5.7 N 28 48 15 26 1018.8 1018.8 0.0
22/08:30am 20.7 15.6 10.5 52 5.5 N 28 43 15 23 1018.8 1018.8 0.0
22/08:00am 20.2 15.0 10.3 53 5.3 N 28 41 15 22 1018.9 1018.9 0.0
22/07:30am 19.4 13.3 10.4 56 4.9 N 33 52 18 28 1018.8 1018.8 0.0
22/07:12am 19.1 13.9 10.4 57 4.7 N 28 48 15 26 1018.9 1018.9 0.0
22/07:00am 19.1 14.3 10.4 57 4.7 N 26 44 14 24 1018.9 1018.9 0.0
22/06:30am 18.3 15.1 9.9 58 4.5 N 17 28 9 15 1019.2 1019.2 0.0
22/06:00am 18.6 14.8 9.7 56 4.7 N 20 30 11 16 1019.1 1019.1 0.0
22/05:30am 18.8 15.3 10.1 57 4.6 N 19 32 10 17 1019.1 1019.1 0.0
22/05:00am 18.2 15.5 10.3 60 4.2 NNE 15 20 8 11 1019.1 1019.1 0.0
22/04:30am 18.0 15.7 10.4 61 4.1 N 13 19 7 10 1019.1 1019.1 0.0
22/04:00am 16.7 13.9 10.1 65 3.5 NNE 15 19 8 10 1019.3 1019.3 0.0
22/03:30am 16.2 13.4 10.1 67 3.2 NE 15 19 8 10 1019.6 1019.6 0.0
22/03:00am 16.2 13.9 10.5 69 3.0 NE 13 17 7 9 1020.1 1020.1 0.0
22/02:30am 13.9 12.2 9.9 77 2.1 NNE 9 13 5 7 1020.3 1020.3 0.0
22/02:00am 14.2 13.1 10.0 76 2.2 NE 6 9 3 5 1020.5 1020.5 0.0
22/01:30am 14.6 12.8 11.0 79 1.9 NNE 11 11 6 6 1020.8 1020.8 0.0
22/01:00am 14.5 13.4 10.7 78 2.0 N 7 9 4 5 1021.2 1021.2 0.0
22/12:30am 15.6 14.3 11.4 76 2.3 N 9 11 5 6 1021.7 1021.7 0.0
22/12:00am 14.9 13.5 10.9 77 2.1 N 9 13 5 7 1022.0 1022.0 0.0
 
Date/Time
EDT
Temp
°C
App
Temp
°C
Dew
Point
Rel
Hum
%
Delta-T
°C
Wind Press
QNH
hPa
Press
MSL
hPa
Rain
since 9 am
mm
Dir
 
Spd
km/h
Gust
km/h
Spd
kts
Gust
kts
21/11:30pm 14.8 13.0 10.8 77 2.1 NNW 11 13 6 7 1022.3 1022.3 0.0
21/11:00pm 15.4 13.9 10.6 73 2.5 NNW 9 13 5 7 1022.5 1022.5 0.0
21/10:30pm 16.4 15.6 11.6 73 2.6 NNW 7 9 4 5 1022.6 1022.6 0.0
21/10:00pm 17.7 16.6 11.9 69 3.2 E 9 11 5 6 1022.7 1022.7 0.0
21/09:30pm 18.3 17.5 11.8 66 3.6 ESE 7 11 4 6 1022.6 1022.6 0.0
21/09:00pm 18.7 17.7 12.2 66 3.6 E 9 13 5 7 1022.3 1022.3 0.0
21/08:30pm 18.9 17.9 12.2 65 3.7 E 9 13 5 7 1022.2 1022.2 0.0
21/08:00pm 19.6 17.8 12.1 62 4.2 E 13 17 7 9 1022.2 1022.2 0.0
21/07:30pm 20.7 18.1 11.9 57 4.9 E 17 24 9 13 1022.0 1022.0 0.0
21/07:00pm 21.7 18.6 11.7 53 5.6 ESE 19 30 10 16 1021.9 1021.9 0.0
21/06:30pm 22.8 19.2 11.8 50 6.2 ESE 22 32 12 17 1021.8 1021.8 0.0
21/06:00pm 23.3 19.0 12.0 49 6.4 ESE 26 33 14 18 1021.8 1021.8 0.0
21/05:30pm 23.9 19.9 11.9 47 6.8 ESE 24 35 13 19 1021.9 1021.9 0.0
21/05:00pm 24.4 20.6 12.4 47 6.9 ESE 24 37 13 20 1022.0 1022.0 0.0
21/04:30pm 24.7 20.9 12.3 46 7.1 ESE 24 35 13 19 1022.3 1022.3 0.0
21/04:00pm 24.4 20.4 11.7 45 7.2 ESE 24 32 13 17 1022.4 1022.4 0.0
21/03:30pm 24.3 19.8 11.3 44 7.3 ESE 26 33 14 18 1022.9 1022.9 0.0
21/03:00pm 24.6 21.2 11.2 43 7.5 SE 20 32 11 17 1023.4 1023.4 0.0
21/02:30pm 27.1 24.3 9.9 34 9.6 ENE 15 20 8 11 1023.7 1023.7 0.0
21/02:00pm 26.7 23.0 10.0 35 9.3 NE 20 32 11 17 1024.2 1024.2 0.0
21/01:30pm 26.1 22.3 9.9 36 9.0 NNE 20 28 11 15 1024.7 1024.7 0.0
21/01:00pm 24.9 20.8 10.0 39 8.2 NNE 22 37 12 20 1024.9 1024.9 0.0
21/12:30pm 24.8 20.9 9.5 38 8.4 NNE 20 35 11 19 1025.3 1025.3 0.0
21/12:00pm 23.8 18.9 9.8 41 7.6 NNE 26 37 14 20 1025.8 1025.8 0.0
21/11:30am 23.2 17.7 9.2 41 7.5 NNE 28 39 15 21 1026.0 1026.0 0.0
21/11:00am 21.2 17.7 10.1 49 6.0 ENE 19 28 10 15 1026.4 1026.4 0.0
21/10:30am 19.0 15.6 9.2 53 5.2 ENE 17 28 9 15 1026.8 1026.8 0.0
21/10:00am 17.3 13.9 9.2 59 4.2 ENE 17 22 9 12 1027.1 1027.1 0.0
21/09:30am 15.6 13.2 8.6 63 3.6 E 11 15 6 8 1027.3 1027.3 0.0
21/09:00am 13.5 10.6 8.1 70 2.7 E 13 17 7 9 1027.4 1027.4 0.0
21/08:30am 11.8 9.7 8.1 78 1.8 E 9 11 5 6 1027.5 1027.5 0.0
21/08:00am 10.1 8.5 8.2 88 0.9 NE 6 9 3 5 1027.2 1027.2 0.0
21/07:30am 8.1 6.3 7.2 94 0.4 NE 6 7 3 4 1026.9 1026.9 0.0
21/07:00am 6.2 3.9 5.5 95 0.3 N 7 9 4 5 1026.8 1026.8 0.0
21/06:30am 5.2 2.3 4.5 95 0.3 NNE 9 11 5 6 1026.6 1026.6 0.0
21/06:00am 4.6 2.8 3.7 94 0.4 NNW 2 9 1 5 1026.3 1026.3 0.0
21/05:30am 4.4 1.9 3.5 94 0.4 NNW 6 7 3 4 1026.0 1026.0 0.0
21/05:00am 4.6 1.5 3.7 94 0.4 NNW 9 13 5 7 1026.1 1026.1 0.0
21/04:30am 5.1 1.7 4.1 93 0.4 N 11 13 6 7 1026.2 1026.2 0.0
21/04:00am 4.8 1.3 3.6 92 0.5 NW 11 13 6 7 1026.1 1026.1 0.0
21/03:30am 5.2 1.8 3.9 91 0.5 NNW 11 13 6 7 1026.3 1026.3 0.0
21/03:00am 5.6 2.2 4.1 90 0.6 NW 11 13 6 7 1026.5 1026.5 0.0
21/02:30am 6.2 2.8 4.2 87 0.9 NNW 11 13 6 7 1026.6 1026.6 0.0
21/02:00am 8.8 6.5 5.7 81 1.4 E 7 9 4 5 1026.6 1026.6 0.0
21/01:30am 10.0 7.9 6.7 80 1.5 E 7 9 4 5 1026.9 1026.9 0.0
21/01:00am 10.3 7.9 6.8 79 1.6 ESE 9 11 5 6 1027.1 1027.1 0.0
21/12:30am 11.0 8.6 7.1 77 1.9 ESE 9 13 5 7 1027.3 1027.3 0.0
21/12:00am 11.4 7.9 7.1 75 2.0 ESE 15 20 8 11 1027.4 1027.4 0.0
 
Date/Time
EDT
Temp
°C
App
Temp
°C
Dew
Point
Rel
Hum
%
Delta-T
°C
Wind Press
QNH
hPa
Press
MSL
hPa
Rain
since 9 am
mm
Dir
 
Spd
km/h
Gust
km/h
Spd
kts
Gust
kts
20/11:30pm 11.9 7.6 7.2 73 2.3 SE 19 26 10 14 1027.7 1027.7 0.0
20/11:00pm 12.1 7.7 7.2 72 2.3 SE 20 30 11 16 1027.8 1027.8 0.0
20/10:30pm 12.5 7.7 7.4 71 2.5 SE 22 35 12 19 1028.0 1028.0 0.0
20/10:00pm 13.0 7.1 7.7 70 2.6 SE 28 43 15 23 1028.1 1028.1 0.0
20/09:30pm 13.3 7.8 7.5 68 2.8 SE 26 41 14 22 1028.1 1028.1 0.0
20/09:00pm 14.0 8.1 7.5 65 3.2 SE 28 43 15 23 1028.1 1028.1 0.0
20/08:30pm 14.5 9.1 7.8 64 3.3 SE 26 37 14 20 1027.7 1027.7 0.0
20/08:00pm 15.2 9.8 8.0 62 3.6 ESE 26 43 14 23 1027.4 1027.4 0.0
20/07:30pm 15.6 11.8 9.7 68 3.1 S 20 35 11 19 1027.4 1027.4 0.0
20/07:00pm 15.9 11.8 10.0 68 3.1 S 22 33 12 18 1027.2 1027.2 0.0
20/06:30pm 16.7 12.3 10.3 66 3.4 S 24 33 13 18 1027.2 1027.2 0.0
20/06:00pm 17.3 13.2 10.2 63 3.7 S 22 35 12 19 1027.3 1027.3 0.0
20/05:30pm 17.9 13.0 10.0 60 4.2 S 26 33 14 18 1027.4 1027.4 0.0
20/05:00pm 17.6 11.7 9.2 58 4.4 S 30 37 16 20 1027.4 1027.4 0.0

Other Formats:

Comma delimited format used in spreadsheet applications
http://www.bom.gov.au/fwo/IDV60801/IDV60801.94865.axf

JavaScript Object Notation format (JSON) in row-major order
http://www.bom.gov.au/fwo/IDV60801/IDV60801.94865.json